sensor_id;sensor_type;location;lat;lon;timestamp;temperature;humidity
12408;DHT22;6268;48.188;17.134;2022-09-30T00:01:40;13.10;99.90
12408;DHT22;6268;48.188;17.134;2022-09-30T00:04:15;13.00;99.90
12408;DHT22;6268;48.188;17.134;2022-09-30T00:06:46;13.00;99.90
12408;DHT22;6268;48.188;17.134;2022-09-30T00:09:15;13.10;99.90
12408;DHT22;6268;48.188;17.134;2022-09-30T00:11:44;13.30;99.90
12408;DHT22;6268;48.188;17.134;2022-09-30T00:14:17;13.20;99.90
12408;DHT22;6268;48.188;17.134;2022-09-30T00:16:47;13.20;99.90
12408;DHT22;6268;48.188;17.134;2022-09-30T00:19:17;13.10;99.90
12408;DHT22;6268;48.188;17.134;2022-09-30T00:21:46;13.20;99.90
12408;DHT22;6268;48.188;17.134;2022-09-30T00:24:15;13.10;99.90
12408;DHT22;6268;48.188;17.134;2022-09-30T00:26:43;13.00;99.90
12408;DHT22;6268;48.188;17.134;2022-09-30T00:29:12;13.20;99.90
12408;DHT22;6268;48.188;17.134;2022-09-30T00:31:41;13.20;99.90
12408;DHT22;6268;48.188;17.134;2022-09-30T00:34:10;13.10;99.90
12408;DHT22;6268;48.188;17.134;2022-09-30T00:36:42;13.10;99.90
12408;DHT22;6268;48.188;17.134;2022-09-30T00:39:13;13.10;99.90
12408;DHT22;6268;48.188;17.134;2022-09-30T00:41:43;13.20;99.90
12408;DHT22;6268;48.188;17.134;2022-09-30T00:44:49;13.10;99.90
12408;DHT22;6268;48.188;17.134;2022-09-30T00:47:36;13.00;99.90
12408;DHT22;6268;48.188;17.134;2022-09-30T00:50:18;13.00;99.90
12408;DHT22;6268;48.188;17.134;2022-09-30T00:52:56;13.00;99.90
12408;DHT22;6268;48.188;17.134;2022-09-30T00:55:35;12.90;99.90
12408;DHT22;6268;48.188;17.134;2022-09-30T00:58:13;12.90;99.90
12408;DHT22;6268;48.188;17.134;2022-09-30T01:00:45;13.00;99.90
12408;DHT22;6268;48.188;17.134;2022-09-30T01:03:14;13.00;99.90
12408;DHT22;6268;48.188;17.134;2022-09-30T01:05:43;13.00;99.90
12408;DHT22;6268;48.188;17.134;2022-09-30T01:08:13;13.00;99.90
12408;DHT22;6268;48.188;17.134;2022-09-30T01:10:44;13.00;99.90
12408;DHT22;6268;48.188;17.134;2022-09-30T01:13:13;13.10;99.90
12408;DHT22;6268;48.188;17.134;2022-09-30T01:15:57;13.00;99.90
12408;DHT22;6268;48.188;17.134;2022-09-30T01:18:47;13.00;99.90
12408;DHT22;6268;48.188;17.134;2022-09-30T01:21:55;13.00;99.90
12408;DHT22;6268;48.188;17.134;2022-09-30T01:31:48;13.00;99.90
12408;DHT22;6268;48.188;17.134;2022-09-30T01:34:33;13.00;99.90
12408;DHT22;6268;48.188;17.134;2022-09-30T01:37:15;12.90;99.90
12408;DHT22;6268;48.188;17.134;2022-09-30T01:39:56;13.00;99.90
12408;DHT22;6268;48.188;17.134;2022-09-30T01:42:37;13.00;99.90
12408;DHT22;6268;48.188;17.134;2022-09-30T01:45:17;13.10;99.90
12408;DHT22;6268;48.188;17.134;2022-09-30T01:47:57;13.10;99.90
12408;DHT22;6268;48.188;17.134;2022-09-30T01:50:35;13.10;99.90
12408;DHT22;6268;48.188;17.134;2022-09-30T01:53:18;13.10;99.90
12408;DHT22;6268;48.188;17.134;2022-09-30T01:55:56;13.10;99.90
12408;DHT22;6268;48.188;17.134;2022-09-30T01:58:35;13.00;99.90
12408;DHT22;6268;48.188;17.134;2022-09-30T02:01:15;13.00;99.90
12408;DHT22;6268;48.188;17.134;2022-09-30T02:03:52;13.00;99.90
12408;DHT22;6268;48.188;17.134;2022-09-30T02:06:26;13.00;99.90
12408;DHT22;6268;48.188;17.134;2022-09-30T02:09:03;13.00;99.90
12408;DHT22;6268;48.188;17.134;2022-09-30T02:11:36;13.10;99.90
12408;DHT22;6268;48.188;17.134;2022-09-30T02:14:11;13.10;99.90
12408;DHT22;6268;48.188;17.134;2022-09-30T02:16:47;13.20;99.90
12408;DHT22;6268;48.188;17.134;2022-09-30T02:19:28;13.20;99.90
12408;DHT22;6268;48.188;17.134;2022-09-30T02:22:01;13.20;99.90
12408;DHT22;6268;48.188;17.134;2022-09-30T02:24:35;13.20;99.90
12408;DHT22;6268;48.188;17.134;2022-09-30T02:27:08;13.10;99.90
12408;DHT22;6268;48.188;17.134;2022-09-30T02:29:46;13.10;99.90
12408;DHT22;6268;48.188;17.134;2022-09-30T02:32:22;13.10;99.90
12408;DHT22;6268;48.188;17.134;2022-09-30T02:34:58;13.00;99.90
12408;DHT22;6268;48.188;17.134;2022-09-30T02:37:31;13.00;99.90
12408;DHT22;6268;48.188;17.134;2022-09-30T02:40:08;13.10;99.90
12408;DHT22;6268;48.188;17.134;2022-09-30T02:42:42;13.00;99.90
12408;DHT22;6268;48.188;17.134;2022-09-30T02:45:15;13.10;99.90
12408;DHT22;6268;48.188;17.134;2022-09-30T02:48:05;13.00;99.90
12408;DHT22;6268;48.188;17.134;2022-09-30T02:50:47;13.00;99.90
12408;DHT22;6268;48.188;17.134;2022-09-30T02:53:22;13.10;99.90
12408;DHT22;6268;48.188;17.134;2022-09-30T02:56:16;13.10;99.90
12408;DHT22;6268;48.188;17.134;2022-09-30T02:58:51;13.20;99.90
12408;DHT22;6268;48.188;17.134;2022-09-30T03:01:23;13.30;99.90
12408;DHT22;6268;48.188;17.134;2022-09-30T03:03:55;13.30;99.90
12408;DHT22;6268;48.188;17.134;2022-09-30T03:06:28;13.30;99.90
12408;DHT22;6268;48.188;17.134;2022-09-30T03:08:57;13.30;99.90
12408;DHT22;6268;48.188;17.134;2022-09-30T03:11:27;13.30;99.90
12408;DHT22;6268;48.188;17.134;2022-09-30T03:14:22;13.30;99.90
12408;DHT22;6268;48.188;17.134;2022-09-30T03:17:23;13.30;99.90
12408;DHT22;6268;48.188;17.134;2022-09-30T03:20:12;13.30;99.90
12408;DHT22;6268;48.188;17.134;2022-09-30T03:23:30;13.20;99.90
12408;DHT22;6268;48.188;17.134;2022-09-30T03:26:16;13.20;99.90
12408;DHT22;6268;48.188;17.134;2022-09-30T03:28:58;13.20;99.90
12408;DHT22;6268;48.188;17.134;2022-09-30T03:31:41;13.20;99.90
12408;DHT22;6268;48.188;17.134;2022-09-30T03:34:24;13.10;99.90
12408;DHT22;6268;48.188;17.134;2022-09-30T03:37:01;13.10;99.90
12408;DHT22;6268;48.188;17.134;2022-09-30T03:39:52;13.10;99.90
12408;DHT22;6268;48.188;17.134;2022-09-30T03:42:27;13.20;99.90
12408;DHT22;6268;48.188;17.134;2022-09-30T03:45:04;13.20;99.90
12408;DHT22;6268;48.188;17.134;2022-09-30T03:47:41;13.10;99.90
12408;DHT22;6268;48.188;17.134;2022-09-30T03:50:16;13.10;99.90
12408;DHT22;6268;48.188;17.134;2022-09-30T03:52:49;13.00;99.90
12408;DHT22;6268;48.188;17.134;2022-09-30T03:55:21;13.00;99.90
12408;DHT22;6268;48.188;17.134;2022-09-30T03:57:51;13.00;99.90
12408;DHT22;6268;48.188;17.134;2022-09-30T04:00:20;13.00;99.90
12408;DHT22;6268;48.188;17.134;2022-09-30T04:02:49;12.90;99.90
12408;DHT22;6268;48.188;17.134;2022-09-30T04:05:23;12.90;99.90
12408;DHT22;6268;48.188;17.134;2022-09-30T04:07:52;12.90;99.90
12408;DHT22;6268;48.188;17.134;2022-09-30T04:10:22;12.90;99.90
12408;DHT22;6268;48.188;17.134;2022-09-30T04:12:52;12.90;99.90
12408;DHT22;6268;48.188;17.134;2022-09-30T04:15:21;12.90;99.90
12408;DHT22;6268;48.188;17.134;2022-09-30T04:17:50;13.00;99.90
12408;DHT22;6268;48.188;17.134;2022-09-30T04:20:18;13.00;99.90
12408;DHT22;6268;48.188;17.134;2022-09-30T04:22:47;13.00;99.90
12408;DHT22;6268;48.188;17.134;2022-09-30T04:25:15;13.00;99.90
12408;DHT22;6268;48.188;17.134;2022-09-30T04:27:45;13.00;99.90
12408;DHT22;6268;48.188;17.134;2022-09-30T04:30:14;13.10;99.90
12408;DHT22;6268;48.188;17.134;2022-09-30T04:32:48;13.10;99.90
12408;DHT22;6268;48.188;17.134;2022-09-30T04:35:17;13.00;99.90
12408;DHT22;6268;48.188;17.134;2022-09-30T04:37:46;13.00;99.90
12408;DHT22;6268;48.188;17.134;2022-09-30T04:40:15;13.00;99.90
12408;DHT22;6268;48.188;17.134;2022-09-30T04:42:45;13.10;99.90
12408;DHT22;6268;48.188;17.134;2022-09-30T04:45:14;13.10;99.90
12408;DHT22;6268;48.188;17.134;2022-09-30T04:47:43;13.10;99.90
12408;DHT22;6268;48.188;17.134;2022-09-30T04:50:12;13.10;99.90
12408;DHT22;6268;48.188;17.134;2022-09-30T04:52:41;13.10;99.90
12408;DHT22;6268;48.188;17.134;2022-09-30T04:55:10;13.10;99.90
12408;DHT22;6268;48.188;17.134;2022-09-30T04:57:43;13.10;99.90
12408;DHT22;6268;48.188;17.134;2022-09-30T05:00:13;13.10;99.90
12408;DHT22;6268;48.188;17.134;2022-09-30T05:02:42;13.10;99.90
12408;DHT22;6268;48.188;17.134;2022-09-30T05:05:11;13.10;99.90
12408;DHT22;6268;48.188;17.134;2022-09-30T05:07:40;13.10;99.90
12408;DHT22;6268;48.188;17.134;2022-09-30T05:10:09;13.10;99.90
12408;DHT22;6268;48.188;17.134;2022-09-30T05:12:39;13.10;99.90
12408;DHT22;6268;48.188;17.134;2022-09-30T05:15:09;13.10;99.90
12408;DHT22;6268;48.188;17.134;2022-09-30T05:17:38;13.20;99.90
12408;DHT22;6268;48.188;17.134;2022-09-30T05:20:08;13.20;99.90
12408;DHT22;6268;48.188;17.134;2022-09-30T05:22:37;13.20;99.90
12408;DHT22;6268;48.188;17.134;2022-09-30T05:25:07;13.30;99.90
12408;DHT22;6268;48.188;17.134;2022-09-30T05:27:36;13.30;99.90
12408;DHT22;6268;48.188;17.134;2022-09-30T05:30:06;13.20;99.90
12408;DHT22;6268;48.188;17.134;2022-09-30T05:32:36;13.30;99.90
12408;DHT22;6268;48.188;17.134;2022-09-30T05:35:06;13.20;99.90
12408;DHT22;6268;48.188;17.134;2022-09-30T05:37:35;13.20;99.90
12408;DHT22;6268;48.188;17.134;2022-09-30T05:40:05;13.30;99.90
12408;DHT22;6268;48.188;17.134;2022-09-30T05:42:34;13.30;99.90
12408;DHT22;6268;48.188;17.134;2022-09-30T05:45:04;13.30;99.90
12408;DHT22;6268;48.188;17.134;2022-09-30T05:47:34;13.40;99.90
12408;DHT22;6268;48.188;17.134;2022-09-30T05:50:04;13.30;99.90
12408;DHT22;6268;48.188;17.134;2022-09-30T05:52:34;13.30;99.90
12408;DHT22;6268;48.188;17.134;2022-09-30T05:55:03;13.30;99.90
12408;DHT22;6268;48.188;17.134;2022-09-30T05:57:32;13.30;99.90
12408;DHT22;6268;48.188;17.134;2022-09-30T06:00:05;13.30;99.90
12408;DHT22;6268;48.188;17.134;2022-09-30T06:02:37;13.30;99.90
12408;DHT22;6268;48.188;17.134;2022-09-30T06:05:08;13.40;99.90
12408;DHT22;6268;48.188;17.134;2022-09-30T06:07:38;13.40;99.90
12408;DHT22;6268;48.188;17.134;2022-09-30T06:10:09;13.40;99.90
12408;DHT22;6268;48.188;17.134;2022-09-30T06:12:38;13.40;99.90
12408;DHT22;6268;48.188;17.134;2022-09-30T06:15:08;13.30;99.90
12408;DHT22;6268;48.188;17.134;2022-09-30T06:17:38;13.30;99.90
12408;DHT22;6268;48.188;17.134;2022-09-30T06:20:09;13.30;99.90
12408;DHT22;6268;48.188;17.134;2022-09-30T06:22:38;13.20;99.90
12408;DHT22;6268;48.188;17.134;2022-09-30T06:25:10;13.20;99.90
12408;DHT22;6268;48.188;17.134;2022-09-30T06:27:42;13.20;99.90
12408;DHT22;6268;48.188;17.134;2022-09-30T06:30:12;13.10;99.90
12408;DHT22;6268;48.188;17.134;2022-09-30T06:32:42;13.00;99.90
12408;DHT22;6268;48.188;17.134;2022-09-30T06:35:11;13.00;99.90
12408;DHT22;6268;48.188;17.134;2022-09-30T06:37:39;13.00;99.90
12408;DHT22;6268;48.188;17.134;2022-09-30T06:40:08;13.00;99.90
12408;DHT22;6268;48.188;17.134;2022-09-30T06:42:38;12.90;99.90
12408;DHT22;6268;48.188;17.134;2022-09-30T06:45:08;13.00;99.90
12408;DHT22;6268;48.188;17.134;2022-09-30T06:47:56;12.90;99.90
12408;DHT22;6268;48.188;17.134;2022-09-30T06:50:27;12.90;99.90
12408;DHT22;6268;48.188;17.134;2022-09-30T06:52:56;12.90;99.90
12408;DHT22;6268;48.188;17.134;2022-09-30T06:55:25;12.90;99.90
12408;DHT22;6268;48.188;17.134;2022-09-30T06:57:54;12.90;99.90
12408;DHT22;6268;48.188;17.134;2022-09-30T07:00:25;12.90;99.90
12408;DHT22;6268;48.188;17.134;2022-09-30T07:02:56;12.80;99.90
12408;DHT22;6268;48.188;17.134;2022-09-30T07:05:25;12.80;99.90
12408;DHT22;6268;48.188;17.134;2022-09-30T07:07:53;12.80;99.90
12408;DHT22;6268;48.188;17.134;2022-09-30T07:10:22;12.80;99.90
12408;DHT22;6268;48.188;17.134;2022-09-30T07:12:51;12.80;99.90
12408;DHT22;6268;48.188;17.134;2022-09-30T07:15:20;12.80;99.90
12408;DHT22;6268;48.188;17.134;2022-09-30T07:17:50;12.90;99.90
12408;DHT22;6268;48.188;17.134;2022-09-30T07:20:20;12.90;99.90
12408;DHT22;6268;48.188;17.134;2022-09-30T07:22:50;12.90;99.90
12408;DHT22;6268;48.188;17.134;2022-09-30T07:25:18;13.00;99.90
12408;DHT22;6268;48.188;17.134;2022-09-30T07:27:49;13.00;99.90
12408;DHT22;6268;48.188;17.134;2022-09-30T07:30:17;13.10;99.90
12408;DHT22;6268;48.188;17.134;2022-09-30T07:32:53;13.00;99.90
12408;DHT22;6268;48.188;17.134;2022-09-30T07:35:35;13.10;99.90
12408;DHT22;6268;48.188;17.134;2022-09-30T07:38:04;13.20;99.90
12408;DHT22;6268;48.188;17.134;2022-09-30T07:40:33;13.20;99.90
12408;DHT22;6268;48.188;17.134;2022-09-30T07:43:02;13.20;99.90
12408;DHT22;6268;48.188;17.134;2022-09-30T07:45:31;13.20;99.90
12408;DHT22;6268;48.188;17.134;2022-09-30T07:48:00;13.20;99.90
12408;DHT22;6268;48.188;17.134;2022-09-30T07:50:30;13.20;99.90
12408;DHT22;6268;48.188;17.134;2022-09-30T07:53:01;13.10;99.90
12408;DHT22;6268;48.188;17.134;2022-09-30T07:55:30;13.10;99.90
12408;DHT22;6268;48.188;17.134;2022-09-30T07:57:59;13.10;99.90
12408;DHT22;6268;48.188;17.134;2022-09-30T08:00:27;13.00;99.90
12408;DHT22;6268;48.188;17.134;2022-09-30T08:03:08;13.10;99.90
12408;DHT22;6268;48.188;17.134;2022-09-30T08:05:40;13.20;99.90
12408;DHT22;6268;48.188;17.134;2022-09-30T08:08:11;13.20;99.90
12408;DHT22;6268;48.188;17.134;2022-09-30T08:10:40;13.20;99.90
12408;DHT22;6268;48.188;17.134;2022-09-30T08:13:09;13.10;99.90
12408;DHT22;6268;48.188;17.134;2022-09-30T08:15:39;13.20;99.90
12408;DHT22;6268;48.188;17.134;2022-09-30T08:18:08;13.30;99.90
12408;DHT22;6268;48.188;17.134;2022-09-30T08:20:37;13.30;99.90
12408;DHT22;6268;48.188;17.134;2022-09-30T08:23:07;13.30;99.90
12408;DHT22;6268;48.188;17.134;2022-09-30T08:25:36;13.40;99.90
12408;DHT22;6268;48.188;17.134;2022-09-30T08:28:04;13.50;99.90
12408;DHT22;6268;48.188;17.134;2022-09-30T08:30:33;13.50;99.90
12408;DHT22;6268;48.188;17.134;2022-09-30T08:33:02;13.60;99.90
12408;DHT22;6268;48.188;17.134;2022-09-30T08:35:33;13.60;99.90
12408;DHT22;6268;48.188;17.134;2022-09-30T08:38:04;13.60;99.90
12408;DHT22;6268;48.188;17.134;2022-09-30T08:40:37;13.70;99.90
12408;DHT22;6268;48.188;17.134;2022-09-30T08:43:25;13.70;99.90
12408;DHT22;6268;48.188;17.134;2022-09-30T08:46:04;13.80;99.90
12408;DHT22;6268;48.188;17.134;2022-09-30T08:48:46;13.80;99.90
12408;DHT22;6268;48.188;17.134;2022-09-30T08:51:28;14.00;99.90
12408;DHT22;6268;48.188;17.134;2022-09-30T08:54:05;14.00;99.90
12408;DHT22;6268;48.188;17.134;2022-09-30T08:56:39;14.10;99.90
12408;DHT22;6268;48.188;17.134;2022-09-30T08:59:17;14.20;99.90
12408;DHT22;6268;48.188;17.134;2022-09-30T09:02:01;14.30;99.90
12408;DHT22;6268;48.188;17.134;2022-09-30T09:04:43;14.40;99.90
12408;DHT22;6268;48.188;17.134;2022-09-30T09:07:22;14.30;99.90
12408;DHT22;6268;48.188;17.134;2022-09-30T09:10:14;14.30;99.90
12408;DHT22;6268;48.188;17.134;2022-09-30T09:12:57;14.50;99.90
12408;DHT22;6268;48.188;17.134;2022-09-30T09:15:44;14.60;99.90
12408;DHT22;6268;48.188;17.134;2022-09-30T09:18:32;14.80;99.90
12408;DHT22;6268;48.188;17.134;2022-09-30T09:21:32;15.00;99.90
12408;DHT22;6268;48.188;17.134;2022-09-30T09:24:14;15.20;99.90
12408;DHT22;6268;48.188;17.134;2022-09-30T09:26:47;15.50;99.90
12408;DHT22;6268;48.188;17.134;2022-09-30T09:29:26;15.60;99.90
12408;DHT22;6268;48.188;17.134;2022-09-30T09:32:12;16.00;99.90
12408;DHT22;6268;48.188;17.134;2022-09-30T09:34:42;16.50;99.90
12408;DHT22;6268;48.188;17.134;2022-09-30T09:37:16;17.30;99.90
12408;DHT22;6268;48.188;17.134;2022-09-30T09:40:13;17.90;99.90
12408;DHT22;6268;48.188;17.134;2022-09-30T09:42:57;18.10;99.90
12408;DHT22;6268;48.188;17.134;2022-09-30T09:45:39;18.40;99.90
12408;DHT22;6268;48.188;17.134;2022-09-30T09:48:15;18.40;99.90
12408;DHT22;6268;48.188;17.134;2022-09-30T09:50:51;19.00;99.90
12408;DHT22;6268;48.188;17.134;2022-09-30T09:53:46;19.70;99.90
12408;DHT22;6268;48.188;17.134;2022-09-30T09:56:18;19.80;99.90
12408;DHT22;6268;48.188;17.134;2022-09-30T09:59:06;19.50;99.90
12408;DHT22;6268;48.188;17.134;2022-09-30T10:01:39;19.40;99.90
12408;DHT22;6268;48.188;17.134;2022-09-30T10:04:12;19.20;99.90
12408;DHT22;6268;48.188;17.134;2022-09-30T10:06:50;18.50;99.90
12408;DHT22;6268;48.188;17.134;2022-09-30T10:09:26;18.80;99.90
12408;DHT22;6268;48.188;17.134;2022-09-30T10:12:28;19.40;99.90
12408;DHT22;6268;48.188;17.134;2022-09-30T10:15:18;19.70;99.90
12408;DHT22;6268;48.188;17.134;2022-09-30T10:17:52;19.50;99.90
12408;DHT22;6268;48.188;17.134;2022-09-30T10:20:28;19.50;99.90
12408;DHT22;6268;48.188;17.134;2022-09-30T10:23:07;19.90;99.90
12408;DHT22;6268;48.188;17.134;2022-09-30T10:25:37;20.30;99.90
12408;DHT22;6268;48.188;17.134;2022-09-30T10:28:21;20.30;99.90
12408;DHT22;6268;48.188;17.134;2022-09-30T10:30:54;20.00;99.90
12408;DHT22;6268;48.188;17.134;2022-09-30T10:33:30;19.60;99.90
12408;DHT22;6268;48.188;17.134;2022-09-30T10:36:09;19.10;99.90
12408;DHT22;6268;48.188;17.134;2022-09-30T10:38:55;18.50;99.90
12408;DHT22;6268;48.188;17.134;2022-09-30T10:41:35;18.10;99.90
12408;DHT22;6268;48.188;17.134;2022-09-30T10:44:11;17.70;99.90
12408;DHT22;6268;48.188;17.134;2022-09-30T10:46:46;17.60;99.90
12408;DHT22;6268;48.188;17.134;2022-09-30T10:49:24;17.40;99.90
12408;DHT22;6268;48.188;17.134;2022-09-30T10:51:57;17.40;99.90
12408;DHT22;6268;48.188;17.134;2022-09-30T10:54:48;17.30;99.90
12408;DHT22;6268;48.188;17.134;2022-09-30T10:57:21;17.00;99.90
12408;DHT22;6268;48.188;17.134;2022-09-30T10:59:57;17.00;99.90
12408;DHT22;6268;48.188;17.134;2022-09-30T11:02:34;17.10;99.90
12408;DHT22;6268;48.188;17.134;2022-09-30T11:05:14;17.30;99.90
12408;DHT22;6268;48.188;17.134;2022-09-30T11:07:51;17.30;99.90
12408;DHT22;6268;48.188;17.134;2022-09-30T11:10:32;17.20;99.90
12408;DHT22;6268;48.188;17.134;2022-09-30T11:13:12;17.10;99.90
12408;DHT22;6268;48.188;17.134;2022-09-30T11:15:55;17.00;99.90
12408;DHT22;6268;48.188;17.134;2022-09-30T11:18:37;16.90;99.90
12408;DHT22;6268;48.188;17.134;2022-09-30T11:21:15;17.00;99.90
12408;DHT22;6268;48.188;17.134;2022-09-30T11:23:51;17.00;99.90
12408;DHT22;6268;48.188;17.134;2022-09-30T11:26:33;16.70;99.90
12408;DHT22;6268;48.188;17.134;2022-09-30T11:32:28;16.30;99.90
12408;DHT22;6268;48.188;17.134;2022-09-30T11:35:19;16.50;99.90
12408;DHT22;6268;48.188;17.134;2022-09-30T11:38:08;16.80;99.90
12408;DHT22;6268;48.188;17.134;2022-09-30T11:40:47;16.90;99.90
12408;DHT22;6268;48.188;17.134;2022-09-30T11:43:30;16.80;99.90
12408;DHT22;6268;48.188;17.134;2022-09-30T11:46:17;16.70;99.90
12408;DHT22;6268;48.188;17.134;2022-09-30T11:49:19;16.60;99.90
12408;DHT22;6268;48.188;17.134;2022-09-30T11:52:05;16.60;99.90
12408;DHT22;6268;48.188;17.134;2022-09-30T11:54:54;16.50;99.90
12408;DHT22;6268;48.188;17.134;2022-09-30T11:57:38;16.40;99.90
12408;DHT22;6268;48.188;17.134;2022-09-30T12:00:18;16.40;99.90
12408;DHT22;6268;48.188;17.134;2022-09-30T12:02:50;16.40;99.90
12408;DHT22;6268;48.188;17.134;2022-09-30T12:05:25;16.40;99.90
12408;DHT22;6268;48.188;17.134;2022-09-30T12:08:05;16.40;99.90
12408;DHT22;6268;48.188;17.134;2022-09-30T12:10:43;16.20;99.90
12408;DHT22;6268;48.188;17.134;2022-09-30T12:13:21;16.20;99.90
12408;DHT22;6268;48.188;17.134;2022-09-30T12:15:53;16.20;99.90
12408;DHT22;6268;48.188;17.134;2022-09-30T12:18:27;16.40;99.90
12408;DHT22;6268;48.188;17.134;2022-09-30T12:21:03;16.50;99.90
12408;DHT22;6268;48.188;17.134;2022-09-30T12:23:46;16.40;99.90
12408;DHT22;6268;48.188;17.134;2022-09-30T12:26:20;16.30;99.90
12408;DHT22;6268;48.188;17.134;2022-09-30T12:28:52;16.30;99.90
12408;DHT22;6268;48.188;17.134;2022-09-30T12:32:09;16.60;99.90
12408;DHT22;6268;48.188;17.134;2022-09-30T12:34:58;17.00;99.90
12408;DHT22;6268;48.188;17.134;2022-09-30T12:37:45;16.80;99.90
12408;DHT22;6268;48.188;17.134;2022-09-30T12:40:43;16.90;99.90
12408;DHT22;6268;48.188;17.134;2022-09-30T12:49:42;16.60;99.90
12408;DHT22;6268;48.188;17.134;2022-09-30T12:52:15;16.50;99.90
12408;DHT22;6268;48.188;17.134;2022-09-30T12:54:49;16.40;99.90
12408;DHT22;6268;48.188;17.134;2022-09-30T12:57:24;16.40;99.90
12408;DHT22;6268;48.188;17.134;2022-09-30T13:00:01;16.50;99.90
12408;DHT22;6268;48.188;17.134;2022-09-30T13:02:34;16.60;99.90
12408;DHT22;6268;48.188;17.134;2022-09-30T13:08:30;16.40;99.90
12408;DHT22;6268;48.188;17.134;2022-09-30T13:11:31;16.30;99.90
12408;DHT22;6268;48.188;17.134;2022-09-30T13:14:29;16.30;99.90
12408;DHT22;6268;48.188;17.134;2022-09-30T13:23:35;16.40;99.90
12408;DHT22;6268;48.188;17.134;2022-09-30T13:26:04;16.50;99.90
12408;DHT22;6268;48.188;17.134;2022-09-30T13:29:36;16.60;99.90
12408;DHT22;6268;48.188;17.134;2022-09-30T13:32:07;16.60;99.90
12408;DHT22;6268;48.188;17.134;2022-09-30T13:34:58;16.50;99.90
12408;DHT22;6268;48.188;17.134;2022-09-30T13:37:37;16.60;99.90
12408;DHT22;6268;48.188;17.134;2022-09-30T13:40:17;16.60;99.90
12408;DHT22;6268;48.188;17.134;2022-09-30T13:43:15;16.60;99.90
12408;DHT22;6268;48.188;17.134;2022-09-30T13:45:48;16.50;99.90
12408;DHT22;6268;48.188;17.134;2022-09-30T13:48:26;16.60;99.90
12408;DHT22;6268;48.188;17.134;2022-09-30T13:50:58;16.70;99.90
12408;DHT22;6268;48.188;17.134;2022-09-30T13:53:31;16.70;99.90
12408;DHT22;6268;48.188;17.134;2022-09-30T13:56:06;16.60;99.90
12408;DHT22;6268;48.188;17.134;2022-09-30T13:59:03;16.70;99.90
12408;DHT22;6268;48.188;17.134;2022-09-30T14:02:23;16.70;99.90
12408;DHT22;6268;48.188;17.134;2022-09-30T14:05:19;16.70;99.90
12408;DHT22;6268;48.188;17.134;2022-09-30T14:08:19;16.80;99.90
12408;DHT22;6268;48.188;17.134;2022-09-30T14:11:25;16.70;99.90
12408;DHT22;6268;48.188;17.134;2022-09-30T14:14:26;16.70;99.90
12408;DHT22;6268;48.188;17.134;2022-09-30T14:17:20;16.50;99.90
12408;DHT22;6268;48.188;17.134;2022-09-30T14:20:14;16.50;99.90
12408;DHT22;6268;48.188;17.134;2022-09-30T14:22:53;16.40;99.90
12408;DHT22;6268;48.188;17.134;2022-09-30T14:25:22;16.30;99.90
12408;DHT22;6268;48.188;17.134;2022-09-30T14:28:01;16.30;99.90
12408;DHT22;6268;48.188;17.134;2022-09-30T14:30:38;16.20;99.90
12408;DHT22;6268;48.188;17.134;2022-09-30T14:33:20;16.40;99.90
12408;DHT22;6268;48.188;17.134;2022-09-30T14:35:54;16.40;99.90
12408;DHT22;6268;48.188;17.134;2022-09-30T14:38:24;16.30;99.90
12408;DHT22;6268;48.188;17.134;2022-09-30T14:40:57;16.40;99.90
12408;DHT22;6268;48.188;17.134;2022-09-30T14:43:33;16.40;99.90
12408;DHT22;6268;48.188;17.134;2022-09-30T14:46:23;16.40;99.90
12408;DHT22;6268;48.188;17.134;2022-09-30T14:48:59;16.30;99.90
12408;DHT22;6268;48.188;17.134;2022-09-30T14:51:36;16.20;99.90
12408;DHT22;6268;48.188;17.134;2022-09-30T14:54:17;16.40;99.90
12408;DHT22;6268;48.188;17.134;2022-09-30T14:56:47;16.40;99.90
12408;DHT22;6268;48.188;17.134;2022-09-30T14:59:18;16.40;99.90
12408;DHT22;6268;48.188;17.134;2022-09-30T15:01:55;16.40;99.90
12408;DHT22;6268;48.188;17.134;2022-09-30T15:04:28;16.20;99.90
12408;DHT22;6268;48.188;17.134;2022-09-30T15:06:59;16.20;99.90
12408;DHT22;6268;48.188;17.134;2022-09-30T15:09:33;16.10;99.90
12408;DHT22;6268;48.188;17.134;2022-09-30T15:12:04;16.20;99.90
12408;DHT22;6268;48.188;17.134;2022-09-30T15:14:45;16.10;99.90
12408;DHT22;6268;48.188;17.134;2022-09-30T15:17:20;16.10;99.90
12408;DHT22;6268;48.188;17.134;2022-09-30T15:19:51;16.20;99.90
12408;DHT22;6268;48.188;17.134;2022-09-30T15:22:22;16.20;99.90
12408;DHT22;6268;48.188;17.134;2022-09-30T15:24:54;16.20;99.90
12408;DHT22;6268;48.188;17.134;2022-09-30T15:27:29;16.10;99.90
12408;DHT22;6268;48.188;17.134;2022-09-30T15:30:03;16.10;99.90
12408;DHT22;6268;48.188;17.134;2022-09-30T15:32:58;16.00;99.90
12408;DHT22;6268;48.188;17.134;2022-09-30T15:35:29;16.10;99.90
12408;DHT22;6268;48.188;17.134;2022-09-30T15:38:06;16.10;99.90
12408;DHT22;6268;48.188;17.134;2022-09-30T15:40:43;16.10;99.90
12408;DHT22;6268;48.188;17.134;2022-09-30T15:43:29;16.10;99.90
12408;DHT22;6268;48.188;17.134;2022-09-30T15:46:29;16.20;99.90
12408;DHT22;6268;48.188;17.134;2022-09-30T15:49:04;16.10;99.90
12408;DHT22;6268;48.188;17.134;2022-09-30T15:51:55;16.00;99.90
12408;DHT22;6268;48.188;17.134;2022-09-30T15:54:58;15.90;99.90
12408;DHT22;6268;48.188;17.134;2022-09-30T15:57:43;15.80;99.90
12408;DHT22;6268;48.188;17.134;2022-09-30T16:00:34;15.70;99.90
12408;DHT22;6268;48.188;17.134;2022-09-30T16:03:26;15.70;99.90
12408;DHT22;6268;48.188;17.134;2022-09-30T16:06:09;15.60;99.90
12408;DHT22;6268;48.188;17.134;2022-09-30T16:08:42;15.50;99.90
12408;DHT22;6268;48.188;17.134;2022-09-30T16:11:22;15.50;99.90
12408;DHT22;6268;48.188;17.134;2022-09-30T16:13:53;15.40;99.90
12408;DHT22;6268;48.188;17.134;2022-09-30T16:16:25;15.40;99.90
12408;DHT22;6268;48.188;17.134;2022-09-30T16:18:58;15.50;99.90
12408;DHT22;6268;48.188;17.134;2022-09-30T16:21:41;15.40;99.90
12408;DHT22;6268;48.188;17.134;2022-09-30T16:24:40;15.30;99.90
12408;DHT22;6268;48.188;17.134;2022-09-30T16:27:28;15.20;99.90
12408;DHT22;6268;48.188;17.134;2022-09-30T16:29:59;15.20;99.90
12408;DHT22;6268;48.188;17.134;2022-09-30T16:32:31;15.10;99.90
12408;DHT22;6268;48.188;17.134;2022-09-30T16:35:04;15.00;99.90
12408;DHT22;6268;48.188;17.134;2022-09-30T16:37:35;15.00;99.90
12408;DHT22;6268;48.188;17.134;2022-09-30T16:40:15;15.00;99.90
12408;DHT22;6268;48.188;17.134;2022-09-30T16:42:49;15.00;99.90
12408;DHT22;6268;48.188;17.134;2022-09-30T16:45:21;14.90;99.90
12408;DHT22;6268;48.188;17.134;2022-09-30T16:47:50;14.90;99.90
12408;DHT22;6268;48.188;17.134;2022-09-30T16:50:29;15.00;99.90
12408;DHT22;6268;48.188;17.134;2022-09-30T16:53:05;14.90;99.90
12408;DHT22;6268;48.188;17.134;2022-09-30T16:55:35;15.00;99.90
12408;DHT22;6268;48.188;17.134;2022-09-30T16:58:04;15.10;99.90